Time;durP1;ratioP1;P1;durP2;ratioP2;P2;SDS_P1;SDS_P2;PMS_P1;PMS_P2;Temp;Humidity;BMP_temperature;BMP_pressure;BME280_temperature;BME280_humidity;BME280_pressure;Samples;Min_cycle;Max_cycle;Signal;HPM_P1;HPM_P2
2022/04/09 00:02:01;;;;;;;9.52;4.57;;;;;;;5.51;100.00;97883.38;5053935;28;20476;-76
2022/04/09 00:04:28;;;;;;;10.48;4.20;;;;;;;5.48;100.00;97883.56;5054280;28;20092;-76
2022/04/09 00:06:57;;;;;;;11.48;4.28;;;;;;;5.57;100.00;97875.91;5054305;28;20385;-76
2022/04/09 00:09:25;;;;;;;12.30;5.47;;;;;;;5.63;100.00;97862.09;5054512;28;20496;-77
2022/04/09 00:11:53;;;;;;;15.77;6.88;;;;;;;5.48;100.00;97862.13;5054089;28;20072;-77
2022/04/09 00:14:20;;;;;;;11.52;5.75;;;;;;;5.46;100.00;97869.41;5054140;28;20048;-77
2022/04/09 00:16:48;;;;;;;10.02;4.53;;;;;;;5.54;100.00;97860.03;5053934;28;20051;-77
2022/04/09 00:19:15;;;;;;;12.07;4.32;;;;;;;5.45;100.00;97850.78;5054177;28;20045;-76
2022/04/09 00:21:43;;;;;;;11.68;4.97;;;;;;;5.59;100.00;97852.56;5054057;28;20045;-77
2022/04/09 00:24:12;;;;;;;9.48;4.18;;;;;;;5.64;100.00;97837.88;5053953;28;20041;-77
2022/04/09 00:26:39;;;;;;;10.55;4.45;;;;;;;5.57;100.00;97835.72;5053909;28;20499;-77
2022/04/09 00:29:07;;;;;;;13.55;6.03;;;;;;;5.45;100.00;97837.41;5053501;28;20049;-77
2022/04/09 00:31:35;;;;;;;11.32;5.47;;;;;;;5.43;100.00;97825.94;5053571;28;20067;-78
2022/04/09 00:34:04;;;;;;;10.93;5.20;;;;;;;5.40;100.00;97829.69;5053769;28;20056;-76
2022/04/09 00:36:31;;;;;;;11.18;4.57;;;;;;;5.44;100.00;97816.94;5053693;28;20049;-77
2022/04/09 00:38:59;;;;;;;12.50;6.13;;;;;;;5.47;100.00;97812.22;5053389;28;20091;-76
2022/04/09 00:41:28;;;;;;;18.52;8.70;;;;;;;5.44;100.00;97807.09;5052111;28;20049;-76
2022/04/09 00:43:55;;;;;;;16.75;8.05;;;;;;;5.41;100.00;97809.13;5052708;28;20503;-76
2022/04/09 00:46:23;;;;;;;14.00;6.53;;;;;;;5.28;100.00;97811.75;5053233;28;20076;-76
2022/04/09 00:48:50;;;;;;;23.52;9.73;;;;;;;5.48;100.00;97819.28;5053711;28;20518;-76
2022/04/09 00:51:18;;;;;;;32.92;20.42;;;;;;;5.34;100.00;97811.34;5053495;28;20044;-77
2022/04/09 00:53:48;;;;;;;32.67;18.85;;;;;;;5.29;100.00;97808.97;5053327;28;20067;-76
2022/04/09 00:56:18;;;;;;;36.17;20.48;;;;;;;5.36;100.00;97814.78;5053371;28;20053;-76
2022/04/09 00:58:53;;;;;;;32.95;20.95;;;;;;;5.34;100.00;97827.41;5052451;28;20123;-76
2022/04/09 01:01:21;;;;;;;15.47;8.60;;;;;;;5.19;100.00;97821.25;5055140;28;20048;-76
2022/04/09 01:03:49;;;;;;;15.52;8.93;;;;;;;5.35;100.00;97805.91;5053334;28;20550;-76
2022/04/09 01:06:17;;;;;;;12.43;7.10;;;;;;;5.46;100.00;97801.63;5053164;28;20044;-76
2022/04/09 01:08:44;;;;;;;9.52;4.40;;;;;;;5.35;100.00;97799.69;5053305;28;20045;-76
2022/04/09 01:11:12;;;;;;;11.23;5.72;;;;;;;5.31;100.00;97798.19;5053264;28;20056;-76
2022/04/09 01:13:40;;;;;;;10.65;5.90;;;;;;;5.33;100.00;97780.19;5052750;28;20037;-76
2022/04/09 01:16:09;;;;;;;12.30;5.30;;;;;;;5.17;100.00;97783.91;5053185;28;20052;-76
2022/04/09 01:18:37;;;;;;;9.23;4.50;;;;;;;5.19;100.00;97770.41;5053010;28;20041;-76
2022/04/09 01:21:05;;;;;;;13.00;4.88;;;;;;;5.20;100.00;97786.38;5053151;28;20091;-76
2022/04/09 01:23:34;;;;;;;9.52;4.40;;;;;;;5.36;100.00;97796.03;5053234;28;20067;-76
2022/04/09 01:26:05;;;;;;;10.63;5.10;;;;;;;5.22;100.00;97770.19;5053125;28;20049;-76
2022/04/09 01:28:34;;;;;;;9.75;4.53;;;;;;;5.34;100.00;97789.94;5052772;28;20171;-76
2022/04/09 01:31:02;;;;;;;9.73;4.50;;;;;;;5.33;100.00;97788.22;5052873;28;20044;-76
2022/04/09 01:33:29;;;;;;;10.57;4.40;;;;;;;5.38;100.00;97750.44;5052884;28;20041;-76
2022/04/09 01:35:57;;;;;;;17.48;9.55;;;;;;;5.28;100.00;97774.28;5052714;28;20045;-76
2022/04/09 01:38:24;;;;;;;11.68;5.75;;;;;;;5.20;100.00;97750.72;5052995;28;20052;-76
2022/04/09 01:40:54;;;;;;;11.35;6.03;;;;;;;5.00;100.00;97766.31;5053012;28;20048;-76
2022/04/09 01:43:21;;;;;;;12.40;5.35;;;;;;;5.13;100.00;97754.75;5051640;28;20052;-76
2022/04/09 01:45:49;;;;;;;11.80;5.78;;;;;;;5.03;100.00;97755.38;5052336;28;20053;-76
2022/04/09 01:48:16;;;;;;;15.15;5.70;;;;;;;5.10;100.00;97750.50;5052836;28;20044;-76
2022/04/09 01:50:44;;;;;;;13.07;5.47;;;;;;;5.29;100.00;97751.91;5052676;28;20488;-76
2022/04/09 01:53:12;;;;;;;11.80;4.97;;;;;;;5.08;100.00;97752.38;5052697;28;20056;-76
2022/04/09 01:55:39;;;;;;;10.57;4.97;;;;;;;5.29;100.00;97750.06;5052802;28;20044;-76
2022/04/09 01:58:08;;;;;;;11.23;4.72;;;;;;;5.07;100.00;97743.53;5052488;28;20045;-76
2022/04/09 02:00:36;;;;;;;11.57;5.10;;;;;;;5.17;100.00;97738.41;5052806;28;20052;-76
2022/04/09 02:03:03;;;;;;;8.65;3.80;;;;;;;5.24;100.00;97741.50;5052478;28;20053;-76
2022/04/09 02:05:31;;;;;;;14.10;4.97;;;;;;;5.15;100.00;97743.00;5052702;28;20067;-77
2022/04/09 02:07:59;;;;;;;13.02;4.93;;;;;;;5.15;100.00;97731.44;5052586;28;20068;-76
2022/04/09 02:10:27;;;;;;;33.95;21.17;;;;;;;4.98;100.00;97732.56;5054567;28;20160;-77
2022/04/09 02:12:55;;;;;;;20.08;11.15;;;;;;;5.13;100.00;97741.38;5056457;28;20049;-76
2022/04/09 02:15:24;;;;;;;9.73;5.10;;;;;;;4.91;100.00;97724.13;5056494;28;20033;-76
2022/04/09 02:17:51;;;;;;;8.20;3.42;;;;;;;5.14;100.00;97725.25;5056771;28;20119;-77
2022/04/09 02:20:19;;;;;;;12.15;5.72;;;;;;;5.01;100.00;97727.00;5056394;28;20071;-76
2022/04/09 02:22:47;;;;;;;11.52;4.88;;;;;;;5.01;100.00;97724.34;5056125;28;20048;-76
2022/04/09 02:25:16;;;;;;;10.35;4.55;;;;;;;5.03;100.00;97722.41;5056097;28;20546;-76
2022/04/09 02:27:43;;;;;;;10.23;4.53;;;;;;;5.22;100.00;97706.84;5055994;28;20053;-76
2022/04/09 02:30:12;;;;;;;11.75;4.90;;;;;;;5.08;100.00;97713.13;5056022;28;20052;-76
2022/04/09 02:32:48;;;;;;;10.40;4.68;;;;;;;5.00;100.00;97720.81;5056123;28;20486;-76
2022/04/09 02:35:16;;;;;;;12.60;4.72;;;;;;;4.84;100.00;97722.78;5056282;28;20044;-76
2022/04/09 02:37:44;;;;;;;8.98;4.20;;;;;;;4.87;100.00;97728.81;5056127;28;20076;-76
2022/04/09 02:40:12;;;;;;;9.55;4.13;;;;;;;4.83;100.00;97729.97;5055772;28;20122;-77
2022/04/09 02:42:41;;;;;;;11.68;5.28;;;;;;;4.81;100.00;97729.22;5055603;28;20048;-76
2022/04/09 02:45:09;;;;;;;11.65;4.78;;;;;;;4.90;100.00;97725.91;5055613;28;20565;-77
2022/04/09 02:47:37;;;;;;;9.27;4.30;;;;;;;4.76;100.00;97717.97;5055843;28;20064;-76
2022/04/09 02:50:07;;;;;;;12.48;6.03;;;;;;;5.02;100.00;97710.00;5055929;28;20484;-77
2022/04/09 02:52:35;;;;;;;13.52;5.20;;;;;;;5.10;100.00;97698.78;5055653;28;20075;-76
2022/04/09 02:55:03;;;;;;;9.50;4.80;;;;;;;5.02;100.00;97689.47;5055398;28;20450;-76
2022/04/09 02:57:31;;;;;;;8.30;3.40;;;;;;;4.96;100.00;97679.19;5055767;28;20052;-76
2022/04/09 02:59:58;;;;;;;9.23;4.20;;;;;;;4.77;100.00;97676.88;5055678;28;20044;-77
2022/04/09 03:02:26;;;;;;;8.10;3.20;;;;;;;4.86;100.00;97678.94;5055578;28;20122;-77
2022/04/09 03:04:55;;;;;;;7.40;3.00;;;;;;;4.96;100.00;97679.19;5055579;28;20554;-77
2022/04/09 03:07:24;;;;;;;6.90;3.20;;;;;;;4.90;100.00;97680.44;5055592;28;20045;-77
2022/04/09 03:09:51;;;;;;;9.55;3.63;;;;;;;4.91;100.00;97674.13;5055109;28;20534;-77
2022/04/09 03:12:19;;;;;;;7.68;3.40;;;;;;;4.84;100.00;97669.28;5055355;28;20048;-76
2022/04/09 03:14:47;;;;;;;6.30;2.88;;;;;;;4.70;100.00;97675.59;5055440;28;20215;-77
2022/04/09 03:17:14;;;;;;;7.93;3.35;;;;;;;4.75;100.00;97684.16;5055198;28;20051;-77
2022/04/09 03:19:42;;;;;;;8.15;3.45;;;;;;;4.86;100.00;97676.25;5055125;28;20044;-77
2022/04/09 03:22:09;;;;;;;7.47;3.47;;;;;;;4.81;100.00;97673.03;5054580;28;20443;-76
2022/04/09 03:24:38;;;;;;;10.20;4.35;;;;;;;4.76;100.00;97667.16;5054878;28;20045;-77
2022/04/09 03:27:06;;;;;;;76.05;42.30;;;;;;;4.72;100.00;97674.50;5054881;28;20128;-76
2022/04/09 03:29:33;;;;;;;21.85;12.23;;;;;;;4.95;100.00;97681.94;5054909;28;20122;-76
2022/04/09 03:32:01;;;;;;;14.25;7.90;;;;;;;4.97;100.00;97685.38;5054027;28;20049;-77
2022/04/09 03:34:29;;;;;;;8.50;3.80;;;;;;;4.89;100.00;97689.44;5054574;28;20053;-77
2022/04/09 03:36:56;;;;;;;10.43;3.80;;;;;;;4.93;100.00;97687.41;5054849;28;20041;-77
2022/04/09 03:39:24;;;;;;;7.57;3.47;;;;;;;4.81;100.00;97672.16;5054545;28;20195;-77
2022/04/09 03:41:53;;;;;;;9.68;4.03;;;;;;;4.89;100.00;97669.81;5054640;28;20400;-77
2022/04/09 03:44:21;;;;;;;6.43;3.20;;;;;;;4.91;100.00;97663.41;5054388;28;20053;-77
2022/04/09 03:46:48;;;;;;;6.50;3.20;;;;;;;4.95;100.00;97661.41;5054568;28;20046;-77
2022/04/09 03:49:16;;;;;;;6.55;3.13;;;;;;;4.71;100.00;97654.06;5054654;28;20052;-77
2022/04/09 03:51:43;;;;;;;7.47;3.38;;;;;;;4.75;100.00;97660.09;5054647;28;20071;-77
2022/04/09 03:54:11;;;;;;;6.70;3.20;;;;;;;4.94;100.00;97654.34;5054197;28;20041;-77
2022/04/09 03:56:40;;;;;;;7.10;3.20;;;;;;;4.74;100.00;97658.38;5054393;28;20052;-76
2022/04/09 03:59:09;;;;;;;8.35;3.78;;;;;;;4.79;100.00;97666.94;5054328;28;20060;-76
2022/04/09 04:01:36;;;;;;;9.98;3.92;;;;;;;4.66;100.00;97656.19;5054292;28;20041;-76
2022/04/09 04:04:05;;;;;;;15.25;6.95;;;;;;;4.97;100.00;97655.94;5054247;28;20075;-76
2022/04/09 04:06:33;;;;;;;71.35;40.78;;;;;;;4.78;100.00;97662.56;5053941;28;20045;-74
2022/04/09 04:09:00;;;;;;;46.42;26.52;;;;;;;4.91;100.00;97660.75;5053914;28;20103;-76
2022/04/09 04:11:28;;;;;;;34.17;21.50;;;;;;;4.63;100.00;97659.94;5053582;28;20049;-76
2022/04/09 04:13:55;;;;;;;20.48;12.55;;;;;;;4.75;100.00;97662.75;5054349;28;20048;-76
2022/04/09 04:16:24;;;;;;;10.35;5.20;;;;;;;4.75;100.00;97671.63;5054085;28;20549;-76
2022/04/09 04:18:52;;;;;;;7.80;3.70;;;;;;;4.70;100.00;97663.06;5054081;28;20052;-76
2022/04/09 04:21:19;;;;;;;8.07;3.47;;;;;;;4.73;100.00;97662.84;5053880;28;20049;-76
2022/04/09 04:23:47;;;;;;;7.25;3.60;;;;;;;4.78;100.00;97663.38;5053681;28;20060;-76
2022/04/09 04:26:14;;;;;;;7.10;3.35;;;;;;;4.87;100.00;97653.03;5053974;28;20487;-77
2022/04/09 04:28:42;;;;;;;7.10;3.20;;;;;;;4.76;100.00;97649.28;5054023;28;20045;-77
2022/04/09 04:31:09;;;;;;;8.35;3.67;;;;;;;4.77;100.00;97648.31;5053845;28;20045;-76
2022/04/09 04:33:39;;;;;;;9.45;3.70;;;;;;;4.95;100.00;97650.72;5052793;28;20401;-77
2022/04/09 04:36:06;;;;;;;7.90;3.67;;;;;;;4.88;100.00;97638.69;5053361;28;20521;-76
2022/04/09 04:38:34;;;;;;;6.70;3.35;;;;;;;4.78;100.00;97638.47;5053789;28;20059;-76
2022/04/09 04:41:04;;;;;;;6.45;3.25;;;;;;;4.87;100.00;97632.50;5053363;28;20049;-76
2022/04/09 04:43:32;;;;;;;7.43;4.10;;;;;;;4.81;100.00;97632.03;5052807;28;20186;-77
2022/04/09 04:45:59;;;;;;;8.80;4.50;;;;;;;4.96;100.00;97630.16;5053408;28;20051;-76
2022/04/09 04:48:27;;;;;;;10.13;4.47;;;;;;;4.79;100.00;97624.97;5053608;28;20052;-76
2022/04/09 04:50:56;;;;;;;7.13;3.65;;;;;;;4.83;100.00;97633.66;5053078;28;20045;-76
2022/04/09 04:53:23;;;;;;;8.57;4.25;;;;;;;4.74;100.00;97636.97;5053265;28;20067;-77
2022/04/09 04:55:51;;;;;;;7.82;3.85;;;;;;;4.75;100.00;97636.00;5053438;28;20129;-76
2022/04/09 04:58:19;;;;;;;6.88;3.65;;;;;;;4.93;100.00;97629.41;5053429;28;20072;-76
2022/04/09 05:00:47;;;;;;;8.25;3.97;;;;;;;4.92;100.00;97630.34;5053346;28;20448;-76
2022/04/09 05:03:15;;;;;;;7.47;3.70;;;;;;;4.94;100.00;97632.94;5053098;28;20052;-77
2022/04/09 05:05:42;;;;;;;8.80;4.15;;;;;;;4.92;100.00;97624.16;5052740;28;20052;-77
2022/04/09 05:08:11;;;;;;;9.10;4.32;;;;;;;5.04;100.00;97627.78;5053137;28;20569;-76
2022/04/09 05:10:39;;;;;;;9.73;4.60;;;;;;;4.96;100.00;97631.03;5053213;28;20151;-76
2022/04/09 05:13:07;;;;;;;10.85;4.88;;;;;;;4.99;100.00;97632.59;5053049;28;20048;-77
2022/04/09 05:15:34;;;;;;;10.52;5.43;;;;;;;4.84;100.00;97634.50;5053120;28;20488;-77
2022/04/09 05:18:02;;;;;;;10.52;5.05;;;;;;;5.13;100.00;97645.91;5053098;28;20041;-76
2022/04/09 05:20:30;;;;;;;16.48;8.32;;;;;;;4.91;100.00;97655.41;5052715;28;20155;-77
2022/04/09 05:22:57;;;;;;;127.57;62.85;;;;;;;4.96;100.00;97659.56;5052860;28;20470;-76
2022/04/09 05:25:31;;;;;;;32.00;16.48;;;;;;;5.03;100.00;97663.53;5053010;28;20059;-76
2022/04/09 05:28:03;;;;;;;11.32;5.80;;;;;;;4.87;100.00;97663.72;5054953;28;20102;-77
2022/04/09 05:30:31;;;;;;;10.07;4.80;;;;;;;4.93;100.00;97669.53;5053124;28;20052;-77
2022/04/09 05:32:58;;;;;;;9.82;4.93;;;;;;;4.95;100.00;97679.25;5052881;28;20044;-77
2022/04/09 05:35:26;;;;;;;8.98;4.30;;;;;;;5.01;100.00;97695.78;5052661;28;20385;-76
2022/04/09 05:37:53;;;;;;;8.75;4.40;;;;;;;4.86;100.00;97700.34;5052848;28;20124;-77
2022/04/09 05:40:22;;;;;;;9.63;4.40;;;;;;;4.86;100.00;97704.81;5052942;28;20051;-77
2022/04/09 05:42:50;;;;;;;8.77;4.03;;;;;;;4.88;100.00;97706.44;5044498;28;20049;-77
2022/04/09 05:45:18;;;;;;;9.32;4.18;;;;;;;5.00;100.00;97711.91;5036484;28;20057;-76
2022/04/09 05:47:47;;;;;;;7.75;3.75;;;;;;;4.87;100.00;97706.53;5052351;28;20053;-77
2022/04/09 05:50:14;;;;;;;8.32;4.05;;;;;;;4.93;100.00;97715.00;5056512;28;20470;-77
2022/04/09 05:52:43;;;;;;;6.70;3.70;;;;;;;5.01;100.00;97727.00;5056577;28;20049;-77
2022/04/09 05:55:11;;;;;;;7.70;3.83;;;;;;;5.11;100.00;97730.81;5056672;28;20119;-76
2022/04/09 05:57:39;;;;;;;6.68;3.40;;;;;;;5.06;100.00;97723.06;5057544;28;20392;-77
2022/04/09 06:00:10;;;;;;;8.85;3.90;;;;;;;5.02;100.00;97716.22;5056710;28;20051;-77
2022/04/09 06:02:39;;;;;;;9.68;4.13;;;;;;;5.02;100.00;97721.56;5054276;28;20127;-76
2022/04/09 06:05:08;;;;;;;6.93;3.33;;;;;;;5.04;100.00;97718.78;5052936;28;20563;-76
2022/04/09 06:07:35;;;;;;;9.23;4.13;;;;;;;5.07;100.00;97715.88;5052559;28;20393;-76
2022/04/09 06:10:05;;;;;;;9.20;4.80;;;;;;;4.98;100.00;97692.44;5055802;28;20069;-77
2022/04/09 06:12:33;;;;;;;10.52;4.80;;;;;;;5.01;100.00;97695.78;5056164;28;20048;-76
2022/04/09 06:15:01;;;;;;;10.85;5.20;;;;;;;5.15;100.00;97691.28;5056393;28;20048;-77
2022/04/09 06:17:30;;;;;;;10.15;4.72;;;;;;;5.16;100.00;97693.00;5056128;28;20041;-77
2022/04/09 06:19:57;;;;;;;9.02;4.10;;;;;;;5.03;100.00;97701.88;5055611;28;20045;-76
2022/04/09 06:22:25;;;;;;;8.90;4.07;;;;;;;5.10;100.00;97702.31;5052924;28;20053;-76
2022/04/09 06:24:53;;;;;;;8.27;4.18;;;;;;;5.10;100.00;97706.81;5052577;28;20049;-76
2022/04/09 06:27:20;;;;;;;10.50;4.68;;;;;;;5.16;100.00;97709.06;5054037;28;20048;-76
2022/04/09 06:29:48;;;;;;;9.25;4.13;;;;;;;5.23;100.00;97715.69;5052793;28;20530;-76
2022/04/09 06:32:15;;;;;;;9.65;4.80;;;;;;;5.01;100.00;97716.31;5052283;28;20478;-76
2022/04/09 06:34:44;;;;;;;8.70;3.90;;;;;;;5.17;100.00;97708.97;5052611;28;20048;-76
2022/04/09 06:37:11;;;;;;;7.65;3.75;;;;;;;5.10;100.00;97701.44;5052115;28;20146;-76
2022/04/09 06:39:39;;;;;;;6.85;3.50;;;;;;;5.18;100.00;97699.97;5052457;28;20044;-76
2022/04/09 06:42:07;;;;;;;6.68;3.35;;;;;;;5.31;100.00;97704.47;5052273;28;20052;-76
2022/04/09 06:44:35;;;;;;;5.97;3.08;;;;;;;5.21;100.00;97696.22;5052260;28;20538;-76
2022/04/09 06:47:02;;;;;;;11.70;6.60;;;;;;;5.23;100.00;97707.66;5042396;28;20056;-76
2022/04/09 06:49:29;;;;;;;11.07;6.15;;;;;;;5.14;100.00;97713.66;5051998;28;20522;-76
2022/04/09 06:51:59;;;;;;;15.27;8.15;;;;;;;5.15;100.00;97716.25;5052307;28;20400;-76
2022/04/09 06:54:26;;;;;;;12.10;6.28;;;;;;;5.32;100.00;97724.94;5052113;28;20072;-76
2022/04/09 06:56:53;;;;;;;7.68;3.75;;;;;;;5.15;100.00;97726.94;5051153;28;20052;-76
2022/04/09 06:59:21;;;;;;;8.25;3.95;;;;;;;5.22;100.00;97738.94;5052067;28;20052;-76
2022/04/09 07:01:48;;;;;;;6.22;3.10;;;;;;;5.18;100.00;97737.44;5051237;28;20053;-76
2022/04/09 07:04:16;;;;;;;5.70;2.90;;;;;;;5.33;100.00;97758.78;5051959;28;20500;-76
2022/04/09 07:06:46;;;;;;;6.68;3.25;;;;;;;5.31;100.00;97760.69;5052016;28;20103;-76
2022/04/09 07:09:15;;;;;;;4.60;2.80;;;;;;;5.28;100.00;97775.13;5052100;28;20045;-76
2022/04/09 07:11:42;;;;;;;7.63;3.10;;;;;;;5.41;100.00;97780.50;5051438;28;20102;-76
2022/04/09 07:14:10;;;;;;;5.78;2.80;;;;;;;5.41;100.00;97782.34;5050307;28;20044;-76
2022/04/09 07:16:38;;;;;;;6.03;3.00;;;;;;;5.34;100.00;97784.56;5051515;28;20048;-76
2022/04/09 07:19:08;;;;;;;7.93;3.08;;;;;;;5.38;100.00;97791.44;5050585;28;20041;-75
2022/04/09 07:21:36;;;;;;;6.72;3.35;;;;;;;5.42;100.00;97790.25;5052430;28;20053;-77
2022/04/09 07:24:04;;;;;;;9.07;4.07;;;;;;;5.42;100.00;97787.59;5051651;28;20111;-77
2022/04/09 07:26:33;;;;;;;7.18;3.60;;;;;;;5.38;100.00;97782.56;5051171;28;20511;-77
2022/04/09 07:29:00;;;;;;;8.65;3.70;;;;;;;5.40;100.00;97780.63;5051518;28;20045;-77
2022/04/09 07:31:28;;;;;;;9.88;4.05;;;;;;;5.49;100.00;97783.53;5051330;28;20446;-77
2022/04/09 07:33:55;;;;;;;8.00;3.95;;;;;;;5.45;100.00;97782.03;5051135;28;20067;-77
2022/04/09 07:36:23;;;;;;;10.02;3.67;;;;;;;5.55;100.00;97776.91;5051416;28;20132;-77
2022/04/09 07:38:50;;;;;;;8.95;4.28;;;;;;;5.49;100.00;97780.00;5051030;28;20059;-77
2022/04/09 07:41:18;;;;;;;7.25;3.78;;;;;;;5.53;100.00;97786.88;5051417;28;20416;-77
2022/04/09 07:43:47;;;;;;;9.98;4.38;;;;;;;5.66;100.00;97789.56;5050829;28;20045;-77
2022/04/09 07:46:14;;;;;;;9.35;4.80;;;;;;;5.60;100.00;97795.34;5051910;28;20110;-77
2022/04/09 07:48:42;;;;;;;13.38;5.53;;;;;;;5.54;100.00;97801.13;5051233;28;20048;-79
2022/04/09 07:51:09;;;;;;;12.10;6.65;;;;;;;5.48;100.00;97795.19;5050596;28;20072;-77
2022/04/09 07:53:37;;;;;;;11.85;6.05;;;;;;;5.38;100.00;97802.16;5041805;28;20049;-77
2022/04/09 07:56:05;;;;;;;13.10;7.45;;;;;;;5.53;100.00;97810.97;5031394;28;20045;-77
2022/04/09 07:58:32;;;;;;;14.55;7.40;;;;;;;5.46;100.00;97826.56;5040083;28;20052;-77
2022/04/09 08:01:01;;;;;;;14.52;7.75;;;;;;;5.55;100.00;97834.97;5050026;28;20045;-77
2022/04/09 08:03:29;;;;;;;14.00;8.00;;;;;;;5.42;100.00;97841.13;5050363;28;20053;-77
2022/04/09 08:05:57;;;;;;;13.25;7.35;;;;;;;5.56;100.00;97848.25;5050672;28;20144;-77
2022/04/09 08:08:24;;;;;;;13.20;7.30;;;;;;;5.53;100.00;97848.47;5050616;28;20049;-77
2022/04/09 08:10:51;;;;;;;12.75;6.55;;;;;;;5.43;100.00;97855.41;5047791;28;20659;-76
2022/04/09 08:13:19;;;;;;;11.43;6.20;;;;;;;5.33;100.00;97864.06;5049763;28;20899;-77
2022/04/09 08:15:47;;;;;;;11.00;6.20;;;;;;;5.51;100.00;97878.03;5050219;28;20124;-76
2022/04/09 08:18:15;;;;;;;10.40;5.40;;;;;;;5.60;100.00;97891.75;5049896;28;20056;-77
2022/04/09 08:20:43;;;;;;;11.38;5.50;;;;;;;5.68;100.00;97894.78;5050948;28;20048;-76
2022/04/09 08:23:11;;;;;;;10.50;5.75;;;;;;;5.71;100.00;97915.13;5052862;28;20041;-77
2022/04/09 08:25:38;;;;;;;9.85;5.32;;;;;;;5.77;100.00;97915.59;5052845;28;20500;-74
2022/04/09 08:28:06;;;;;;;9.40;4.90;;;;;;;5.73;100.00;97924.78;5052705;28;20159;-77
2022/04/09 08:30:34;;;;;;;9.40;5.15;;;;;;;5.68;100.00;97920.69;5037867;28;20556;-77
2022/04/09 08:33:05;;;;;;;11.40;5.85;;;;;;;5.74;100.00;97937.22;5052266;28;20037;-77
2022/04/09 08:35:34;;;;;;;10.13;4.93;;;;;;;5.74;100.00;97936.38;5051149;28;20045;-77
2022/04/09 08:38:03;;;;;;;10.75;5.80;;;;;;;5.63;100.00;97945.13;5052385;28;20041;-77
2022/04/09 08:40:32;;;;;;;11.50;4.97;;;;;;;5.77;100.00;97958.44;5052287;28;20052;-77
2022/04/09 08:43:00;;;;;;;8.80;4.07;;;;;;;5.68;100.00;97951.03;5051575;28;20091;-77
2022/04/09 08:45:27;;;;;;;8.38;3.80;;;;;;;5.62;100.00;97965.69;5051704;28;20110;-77
2022/04/09 08:47:55;;;;;;;12.57;5.93;;;;;;;5.50;100.00;97964.66;5051976;28;20051;-77
2022/04/09 08:50:24;;;;;;;9.27;4.40;;;;;;;5.60;100.00;97978.31;5052092;28;20045;-76
2022/04/09 08:52:53;;;;;;;8.38;3.67;;;;;;;5.48;100.00;97990.69;5049491;28;20049;-77
2022/04/09 08:55:20;;;;;;;8.93;4.38;;;;;;;5.31;100.00;97993.59;5052050;28;20036;-77
2022/04/09 08:57:48;;;;;;;8.15;3.55;;;;;;;5.53;100.00;97998.44;5051714;28;20045;-77
2022/04/09 09:00:17;;;;;;;6.50;3.17;;;;;;;5.41;100.00;97993.88;5052331;28;20037;-77
2022/04/09 09:02:51;;;;;;;6.30;3.28;;;;;;;5.53;100.00;97997.59;5052670;28;20132;-76
2022/04/09 09:05:38;;;;;;;6.80;3.25;;;;;;;5.51;100.00;98005.69;5053079;28;20502;-76
2022/04/09 09:08:09;;;;;;;9.15;3.58;;;;;;;5.44;100.00;98007.06;5054989;28;20120;-78
2022/04/09 09:10:38;;;;;;;8.55;3.67;;;;;;;5.57;100.00;98017.84;5053189;28;20056;-77
2022/04/09 09:13:07;;;;;;;11.20;3.80;;;;;;;5.29;100.00;98016.94;5052734;28;20056;-77
2022/04/09 09:15:46;;;;;;;8.38;3.33;;;;;;;5.35;100.00;98029.94;5053134;28;20052;-77
2022/04/09 09:18:20;;;;;;;7.32;3.05;;;;;;;5.49;100.00;98029.03;5053833;28;20393;-76
2022/04/09 09:20:51;;;;;;;7.45;2.97;;;;;;;5.52;100.00;98042.25;5054287;28;20102;-77
2022/04/09 09:23:24;;;;;;;7.15;3.17;;;;;;;5.49;100.00;98058.50;5053239;28;20049;-76
2022/04/09 09:25:53;;;;;;;7.05;3.30;;;;;;;5.47;100.00;98065.78;5034529;28;20049;-76
2022/04/09 09:28:25;;;;;;;16.23;7.72;;;;;;;5.53;100.00;98080.59;5033026;28;20056;-75
2022/04/09 09:30:52;;;;;;;16.85;6.43;;;;;;;5.50;100.00;98074.47;5032801;28;20124;-78
2022/04/09 09:33:20;;;;;;;9.50;4.03;;;;;;;5.56;100.00;98067.84;5032966;28;20053;-78
2022/04/09 09:35:52;;;;;;;10.40;4.15;;;;;;;5.42;100.00;98055.34;5032983;28;20497;-78
2022/04/09 09:38:21;;;;;;;8.65;4.28;;;;;;;5.43;100.00;98041.00;5033556;28;20123;-78
2022/04/09 09:40:50;;;;;;;14.00;6.72;;;;;;;5.40;100.00;98051.06;5032410;28;20053;-78
2022/04/09 09:43:18;;;;;;;10.40;5.00;;;;;;;5.63;100.00;98068.34;5044415;28;20098;-77
2022/04/09 09:45:46;;;;;;;12.98;6.22;;;;;;;5.77;100.00;98073.66;5053362;28;20116;-78
2022/04/09 09:48:22;;;;;;;9.93;4.95;;;;;;;5.83;100.00;98075.09;5052617;28;20068;-78
2022/04/09 09:50:50;;;;;;;10.80;5.00;;;;;;;5.88;100.00;98098.88;5052570;28;20053;-78
2022/04/09 09:53:22;;;;;;;9.80;4.80;;;;;;;5.76;100.00;98112.13;5052749;28;20045;-78
2022/04/09 09:55:51;;;;;;;11.00;5.10;;;;;;;5.90;100.00;98113.03;5052240;28;20049;-77
2022/04/09 09:58:19;;;;;;;11.80;6.05;;;;;;;5.77;100.00;98108.47;5052408;28;20049;-77
2022/04/09 10:00:47;;;;;;;11.60;6.30;;;;;;;5.91;100.00;98117.44;5052651;28;20045;-77
2022/04/09 10:03:16;;;;;;;10.85;6.22;;;;;;;5.79;100.00;98111.91;5052604;28;20087;-78
2022/04/09 10:05:44;;;;;;;11.27;6.60;;;;;;;5.84;100.00;98114.31;5052529;28;20453;-78
2022/04/09 10:08:11;;;;;;;11.40;6.55;;;;;;;5.78;100.00;98125.44;5052692;28;20045;-77
2022/04/09 10:10:41;;;;;;;14.77;7.78;;;;;;;5.97;100.00;98129.59;5052220;28;20045;-77
2022/04/09 10:13:10;;;;;;;14.00;8.55;;;;;;;6.04;100.00;98130.94;5052498;28;20049;-78
2022/04/09 10:15:39;;;;;;;17.92;9.05;;;;;;;5.83;100.00;98149.22;5052577;28;20049;-78
2022/04/09 10:18:09;;;;;;;16.75;8.48;;;;;;;6.00;100.00;98154.38;5052607;28;20045;-78
2022/04/09 10:20:37;;;;;;;13.70;6.60;;;;;;;6.05;100.00;98154.97;5054247;28;20044;-78
2022/04/09 10:23:06;;;;;;;14.93;7.63;;;;;;;6.01;100.00;98163.31;5052467;28;20044;-78
2022/04/09 10:25:34;;;;;;;22.50;9.77;;;;;;;6.06;100.00;98166.53;5051994;28;20045;-78
2022/04/09 10:28:04;;;;;;;15.85;7.63;;;;;;;6.03;100.00;98167.63;5052428;28;20049;-77
2022/04/09 10:30:39;;;;;;;16.00;7.13;;;;;;;6.07;100.00;98163.78;5052894;28;20052;-78
2022/04/09 10:33:21;;;;;;;15.00;7.25;;;;;;;5.99;100.00;98157.16;5056554;28;20052;-78
2022/04/09 10:35:49;;;;;;;12.48;5.90;;;;;;;5.89;100.00;98156.88;5056588;28;20081;-78
2022/04/09 10:38:22;;;;;;;22.67;9.40;;;;;;;5.93;100.00;98156.59;5055807;28;20055;-78
2022/04/09 10:41:23;;;;;;;16.48;7.38;;;;;;;5.96;100.00;98152.88;5057343;28;20052;-78
2022/04/09 10:43:51;;;;;;;8.63;4.18;;;;;;;6.04;100.00;98168.47;5055698;28;20078;-77
2022/04/09 10:46:21;;;;;;;10.55;5.30;;;;;;;6.12;100.00;98176.03;5055679;28;20466;-78
2022/04/09 10:48:49;;;;;;;8.45;4.10;;;;;;;6.04;100.00;98176.50;5057107;28;20475;-78
2022/04/09 10:51:18;;;;;;;9.90;4.50;;;;;;;6.04;100.00;98168.47;5055823;28;20041;-78
2022/04/09 10:53:47;;;;;;;11.10;5.80;;;;;;;6.01;100.00;98174.03;5055361;28;20065;-77
2022/04/09 10:56:20;;;;;;;15.90;7.18;;;;;;;6.12;100.00;98182.25;5055684;28;20055;-78
2022/04/09 10:59:10;;;;;;;8.25;4.10;;;;;;;6.02;100.00;98184.66;5057095;28;20064;-77
2022/04/09 11:01:54;;;;;;;14.40;7.82;;;;;;;6.20;100.00;98193.34;5055489;28;20045;-78
2022/04/09 11:04:42;;;;;;;19.65;9.50;;;;;;;6.29;100.00;98199.91;5055378;28;20044;-78
2022/04/09 11:07:17;;;;;;;18.17;8.43;;;;;;;6.33;100.00;98214.88;5055778;28;20045;-77
2022/04/09 11:09:50;;;;;;;21.23;9.40;;;;;;;6.31;99.98;98237.38;5055488;28;20527;-78
2022/04/09 11:12:20;;;;;;;20.02;9.50;;;;;;;6.40;99.21;98241.28;5056236;28;20446;-77
2022/04/09 11:14:52;;;;;;;17.75;9.00;;;;;;;6.36;99.97;98244.16;5055536;28;20045;-77
2022/04/09 11:17:34;;;;;;;110.80;45.45;;;;;;;6.34;99.96;98247.88;5057252;28;20399;-77
2022/04/09 11:20:05;;;;;;;347.15;126.40;;;;;;;6.43;100.00;98233.03;5057178;28;20041;-78
2022/04/09 11:22:33;;;;;;;37.85;16.85;;;;;;;6.51;99.29;98228.03;5054888;28;20048;-78
2022/04/09 11:25:01;;;;;;;20.55;9.73;;;;;;;6.65;98.44;98237.84;5055036;28;20044;-78
2022/04/09 11:27:29;;;;;;;18.33;7.32;;;;;;;6.58;98.41;98248.13;5055324;28;20048;-78
2022/04/09 11:29:56;;;;;;;26.58;12.75;;;;;;;6.60;98.00;98251.56;5055031;28;20073;-77
2022/04/09 11:32:25;;;;;;;15.68;6.28;;;;;;;6.64;96.50;98253.06;5054995;28;20044;-77
2022/04/09 11:34:56;;;;;;;24.73;8.77;;;;;;;6.81;96.54;98257.34;5055097;28;20048;-78
2022/04/09 11:37:26;;;;;;;15.95;6.93;;;;;;;6.73;95.36;98258.78;5054527;28;20044;-78